TLPC/SLU METAR and TAF weather

Enter ICAO airport designator
Station Type Date Time Source
TLPC METAR 2021/03/06 22:00 UTC NOAA

TLPC 062200Z 08007KT 9999 SCT022 27/22 Q1014 NOSIG


Station Type Date Time Source
TLPC Decoded METAR 2021/03/06 22:00 UTC NOAA

Vigie, Saint Lucia (TLPC) 14-01N 061-00W 2M
Mar 06, 2021 - 05:00 PM EST / 2021.03.06 2200 UTC
Wind: from the E (080 degrees) at 8 MPH (7 KT):0
Visibility: greater than 7 mile(s):0
Sky conditions: partly cloudy
Temperature: 80 F (27 C)
Dew Point: 71 F (22 C)
Relative Humidity: 74%
Pressure (altimeter): 29.94 in. Hg (1014 hPa)
ob: TLPC 062200Z 08007KT 9999 SCT022 27/22 Q1014 NOSIG
cycle: 22

Station Type Date Time Source
TLPC TAF 2021/03/07 06:03 UTC NOAA

TAF TLPC 070500Z 0706/0806 09009KT 9999 SCT024 PROB30
TEMPO 0706/0715 SHRA

Example: see airport list